Toryo Maru — JGPC — position and weather

sailwx.info

Track history (hours):
 
Tides and Currents Weather Stations Pressure Air Temp Water Temp Dewpoint Dewpoint Depression Visibility Wind Speed Wind Dir Waves Ship Positions

Toryo Maru

Last reported at 2018-Jun-22 15:46 UTC. Time now 2018-Jun-25 13:57 UTC.
Position N 33°46' E 135°08'.

Length 69 m; draft 5 m.

Type: Tanker. MMSI: 431697000.

Date/timePositionNaut miles runAvg speedWind from/ knotsBaromVisibWave heightAir tempDewpointWater temp
2018-Jun-22 15:46N 33°46' E 135°08'412.2
2018-Jun-22 15:25N 33°49' E 135°04'512.5
2018-Jun-22 15:01N 33°53' E 135°00'612.2
2018-Jun-22 14:31N 33°58' E 134°55'612.1
2018-Jun-22 14:00N 34°02' E 134°50'1312.4
2018-Jun-22 12:57N 34°12' E 134°40'612.9
2018-Jun-22 12:28N 34°17' E 134°35'612.1
2018-Jun-22 11:58N 34°19' E 134°29'612.1
2018-Jun-22 11:30N 34°22' E 134°22'612.1
2018-Jun-22 11:00N 34°24' E 134°15'1112.2
2018-Jun-22 10:07N 34°26' E 134°03'112.5
2018-Jun-22 10:01N 34°25' E 134°01'  
2018-Jun-19 16:27N 34°21' E 134°26'613.2
2018-Jun-19 15:59N 34°18' E 134°33'713.5
2018-Jun-19 15:29N 34°14' E 134°39'913.3
2018-Jun-19 14:48N 34°07' E 134°46'412.7
2018-Jun-19 14:30N 34°04' E 134°49'713.0
2018-Jun-19 14:00N 33°59' E 134°54'713.5
2018-Jun-19 13:30N 33°54' E 134°59'713.9
2018-Jun-19 13:00N 33°49' E 135°05'  
2018-Jun-15 10:50N 33°50' E 135°04'710.4
2018-Jun-15 10:08N 33°57' E 135°02'211.5
2018-Jun-15 09:59N 33°59' E 135°02'611.5
2018-Jun-15 09:29N 34°05' E 135°03'4 8.3
2018-Jun-15 09:01N 34°08' E 135°06'1 0.1
2018-Jun-14 23:51N 34°07' E 135°07'1 1.8
2018-Jun-14 23:30N 34°08' E 135°07'3 5.4
2018-Jun-14 23:00N 34°10' E 135°05'2 3.1
2018-Jun-14 22:31N 34°10' E 135°03'612.6
2018-Jun-14 22:01N 34°03' E 135°03'612.5
2018-Jun-14 21:31N 33°57' E 135°02'  
Track history (hours):
 
Tides and Currents Weather Stations Pressure Air Temp Water Temp Dewpoint Dewpoint Depression Visibility Wind Speed Wind Dir Waves Ship Positions

Toryo Maru

Last reported at 2018-Jun-22 15:46 UTC. Time now 2018-Jun-25 13:57 UTC.
Position N 33°46' E 135°08'.

Length 69 m; draft 5 m.

Type: Tanker. MMSI: 431697000.

Date/timePositionNaut miles runAvg speedWind from/ knotsBaromVisibWave heightAir tempDewpointWater temp
2018-Jun-22 15:46N 33°46' E 135°08'412.2
2018-Jun-22 15:25N 33°49' E 135°04'512.5
2018-Jun-22 15:01N 33°53' E 135°00'612.2
2018-Jun-22 14:31N 33°58' E 134°55'612.1
2018-Jun-22 14:00N 34°02' E 134°50'1312.4
2018-Jun-22 12:57N 34°12' E 134°40'612.9
2018-Jun-22 12:28N 34°17' E 134°35'612.1
2018-Jun-22 11:58N 34°19' E 134°29'612.1
2018-Jun-22 11:30N 34°22' E 134°22'612.1
2018-Jun-22 11:00N 34°24' E 134°15'1112.2
2018-Jun-22 10:07N 34°26' E 134°03'112.5
2018-Jun-22 10:01N 34°25' E 134°01'  
2018-Jun-19 16:27N 34°21' E 134°26'613.2
2018-Jun-19 15:59N 34°18' E 134°33'713.5
2018-Jun-19 15:29N 34°14' E 134°39'913.3
2018-Jun-19 14:48N 34°07' E 134°46'412.7
2018-Jun-19 14:30N 34°04' E 134°49'713.0
2018-Jun-19 14:00N 33°59' E 134°54'713.5
2018-Jun-19 13:30N 33°54' E 134°59'713.9
2018-Jun-19 13:00N 33°49' E 135°05'  
2018-Jun-15 10:50N 33°50' E 135°04'710.4
2018-Jun-15 10:08N 33°57' E 135°02'211.5
2018-Jun-15 09:59N 33°59' E 135°02'611.5
2018-Jun-15 09:29N 34°05' E 135°03'4 8.3
2018-Jun-15 09:01N 34°08' E 135°06'1 0.1
2018-Jun-14 23:51N 34°07' E 135°07'1 1.8
2018-Jun-14 23:30N 34°08' E 135°07'3 5.4
2018-Jun-14 23:00N 34°10' E 135°05'2 3.1
2018-Jun-14 22:31N 34°10' E 135°03'612.6
2018-Jun-14 22:01N 34°03' E 135°03'612.5
2018-Jun-14 21:31N 33°57' E 135°02'  

Dump ship's entire track history